Terminal Aerodrome Forecast
Issued by NWS

Home | Current Version | Previous Version | Text Only | Print | Product List | Glossary On
Versions: 1 2 3 4 5 6 7 8 9 10 11 12 13 14 15 16 17 18 19 20 21 22 23 24 25 26 27 28 29 30 31 32 33
000
FTUS44 KHGX 301740
TAFCXO
TAF
KCXO 301740Z 3018/3118 00000KT P6SM SCT035 BKN050 BKN250
     FM302000 17005KT P6SM BKN020 BKN250
     FM310200 VRB03KT P6SM SCT015 BKN025
     FM310900 00000KT 5SM BR SCT015 OVC025
     FM311400 17004KT P6SM BKN035 OVC050=

USA.gov is the U.S. government's official web portal to all federal, state and local government web resources and services.